Time;durP1;ratioP1;P1;durP2;ratioP2;P2;SDS_P1;SDS_P2;PMS_P1;PMS_P2;Temp;Humidity;BMP_temperature;BMP_pressure;BME280_temperature;BME280_humidity;BME280_pressure;Samples;Min_cycle;Max_cycle;Signal;HPM_P1;HPM_P2
2023/03/09 10:29:34;;;;;;;;;;;;;;;;;;4910226;29;19978;-86
2023/03/09 10:32:04;;;;;;;;;;;;;;;;;;4898868;29;20006;-89
2023/03/09 10:34:38;;;;;;;23.55;17.00;;;;;;;;;;4898359;29;19915;-92
2023/03/09 10:37:20;;;;;;;;;;;;;;;;;;4899777;29;20444;-92
2023/03/09 10:39:45;;;;;;;;;;;;;;;;;;4899614;29;19915;-92
2023/03/09 10:42:22;;;;;;;;;;;;;;;;;;4900596;29;19926;-90
2023/03/09 10:44:56;;;;;;;;;;;;;;;;;;4904847;29;19915;-93
2023/03/09 10:47:22;;;;;;;;;;;;;;;;;;4898933;29;19915;-93
2023/03/09 10:50:06;;;;;;;;;;;;;;;;;;4899630;29;19925;-93
2023/03/09 10:52:31;;;;;;;;;;;;;;;;;;4898667;29;20362;-93
2023/03/09 10:54:57;;;;;;;;;;;;;;;;;;4899259;29;19922;-91
2023/03/09 10:57:28;;;;;;;;;;;;;;;;;;4899309;29;19938;-93
2023/03/09 10:59:55;;;;;;;;;;;;;;;;;;4903815;29;20362;-93
2023/03/09 11:02:27;;;;;;;;;;;;;;;;;;4902164;29;19922;-92
2023/03/09 11:04:53;;;;;;;;;;;;;;;;;;4899746;29;19916;-94
2023/03/09 11:07:22;;;;;;;;;;;;;;;;;;4901701;29;20006;-92
2023/03/09 11:09:52;;;;;;;;;;;;;;;;;;4917973;23;19923;-96
2023/03/09 11:12:21;;;;;;;;;;;;;;;;;;4919695;29;19919;-93
2023/03/09 11:14:51;;;;;;;;;;;;;;;;;;4918475;29;19922;-94
2023/03/09 11:17:43;;;;;;;;;;;;;;;;;;4903417;29;19915;-96
2023/03/09 11:20:18;;;;;;;;;;;;;;;;;;4924727;29;19982;-93
2023/03/09 11:23:04;;;;;;;;;;;;;;;;;;4918280;29;19911;-93
2023/03/09 11:25:48;;;;;;;;;;;;;;;;;;4917108;29;19925;-91
2023/03/09 11:28:13;;;;;;;;;;;;;;;;;;4918719;29;19915;-93
2023/03/09 11:30:39;;;;;;;;;;;;;;;;;;4906905;29;19967;-92
2023/03/09 11:33:08;;;;;;;;;;;;;;;;;;4908209;29;19978;-92
2023/03/09 11:35:34;;;;;;;;;;;;;;;;;;4883874;29;19938;-96
2023/03/09 11:38:02;;;;;;;;;;;;;;;;;;4913572;29;20285;-88
2023/03/09 11:40:29;;;;;;;;;;;;;;;;;;4917689;29;19989;-92
2023/03/09 11:42:54;;;;;;;;;;;;;;;;;;4903199;29;19915;-90
2023/03/09 11:45:21;;;;;;;;;;;;;;;;;;4920690;29;19922;-88
2023/03/09 11:47:55;;;;;;;;;;;;;;;;;;4920043;29;20002;-90
2023/03/09 11:50:23;;;;;;;;;;;;;;;;;;4919729;29;19926;-89
2023/03/09 11:52:51;;;;;;;;;;;;;;;;;;4921507;29;19918;-91
2023/03/09 11:55:18;;;;;;;;;;;;;;;;;;4904424;29;19915;-88
2023/03/09 11:57:46;;;;;;;;;;;;;;;;;;4921430;29;20013;-91
2023/03/09 12:00:14;;;;;;;;;;;;;;;;;;4905809;29;19915;-96
2023/03/09 12:03:05;;;;;;;;;;;;;;;;;;4920822;29;19958;-87
2023/03/09 12:05:33;;;;;;;;;;;;;;;;;;4917441;29;19921;-89
2023/03/09 12:08:11;;;;;;;;;;;;;;;;;;4903580;29;19957;-92
2023/03/09 12:10:43;;;;;;;;;;;;;;;;;;4907075;29;19919;-94
2023/03/09 12:13:14;;;;;;;;;;;;;;;;;;4901885;29;19916;-92
2023/03/09 12:15:48;;;;;;;;;;;;;;;;;;4902003;29;20086;-93
2023/03/09 12:18:21;;;;;;;;;;;;;;;;;;4892764;29;19939;-93
2023/03/09 12:20:51;;;;;;;;;;;;;;;;;;4918027;29;19915;-94
2023/03/09 12:23:35;;;;;;;;;;;;;;;;;;4904767;29;19915;-94
2023/03/09 12:26:15;;;;;;;;;;;;;;;;;;4922530;29;19919;-94
2023/03/09 12:28:40;;;;;;;;;;;;;;;;;;4925542;29;19923;-93
2023/03/09 12:31:25;;;;;;;;;;;;;;;;;;4905386;29;19921;-89
2023/03/09 12:33:57;;;;;;;;;;;;;;;;;;4885599;29;19916;-89
2023/03/09 12:36:26;;;;;;;;;;;;;;;;;;4902505;29;19969;-89
2023/03/09 12:39:10;;;;;;;;;;;;;;;;;;4900824;29;19919;-88
2023/03/09 12:41:54;;;;;;;;;;;;;;;;;;4884152;29;20309;-87
2023/03/09 17:03:58;;;;;;;;;;;;;;;;;;5124907;23;19923;-90
2023/03/09 17:06:23;;;;;;;;;;;;;;;;;;4901016;29;20006;-89
2023/03/09 17:08:52;;;;;;;;;;;;;;;;;;4900777;29;19971;-89
2023/03/09 17:11:18;;;;;;;;;;;;;;;;;;4900192;29;19915;-87
2023/03/09 21:28:20;;;;;;;;;;;;;;;;;;5071325;23;20022;-89
2023/03/09 21:30:45;;;;;;;;;;;;;;;;;;4902457;29;20339;-89
2023/03/09 21:33:10;;;;;;;;;;;;;;;;;;4930780;29;19919;-88
2023/03/09 21:35:36;;;;;;;;;;;;;;;;;;4922493;29;20102;-88
2023/03/09 21:38:01;;;;;;;;;;;;;;;;;;4901730;29;20018;-89
2023/03/09 21:40:26;;;;;;;;;;;;;;;;;;4937603;29;19919;-88
2023/03/09 21:42:51;;;;;;;;;;;;;;;;;;4920370;29;19921;-89
2023/03/09 21:45:17;;;;;;;;;;;;;;;;;;4920149;29;19915;-89
2023/03/09 21:47:42;;;;;;;;;;;;;;;;;;4934324;29;19962;-89
2023/03/09 21:50:08;;;;;;;;;;;;;;;;;;4920365;29;19970;-88
2023/03/09 21:52:33;;;;;;;;;;;;;;;;;;4920200;29;19970;-87
2023/03/09 21:54:58;;;;;;;;;;;;;;;;;;4920522;29;19919;-89
2023/03/09 21:57:24;;;;;;;;;;;;;;;;;;4937219;29;20377;-90
2023/03/09 21:59:49;;;;;;;;;;;;;;;;;;4920218;29;20365;-88
2023/03/09 22:02:18;;;;;;;;;;;;;;;;;;4920461;29;19915;-91
2023/03/09 22:04:43;;;;;;;;;;;;;;;;;;4911884;29;19922;-88
2023/03/09 22:07:08;;;;;;;;;;;;;;;;;;4901133;29;19915;-89
2023/03/09 22:09:34;;;;;;;;;;;;;;;;;;4918335;29;19922;-88
2023/03/09 22:11:59;;;;;;;;;;;;;;;;;;4901047;29;19922;-88
2023/03/09 22:14:25;;;;;;;;;;;;;;;;;;4918020;29;19926;-88
2023/03/09 22:16:50;;;;;;;;;;;;;;;;;;4900848;29;19915;-87
2023/03/09 22:19:16;;;;;;;;;;;;;;;;;;4900918;29;19921;-87
2023/03/09 22:21:41;;;;;;;;;;;;;;;;;;4900863;29;19997;-88
2023/03/09 22:24:07;;;;;;;;;;;;;;;;;;4917797;29;19919;-88
2023/03/09 22:26:32;;;;;;;;;;;;;;;;;;4916211;29;20373;-89
2023/03/09 22:28:58;;;;;;;;;;;;;;;;;;4918372;29;19922;-90
2023/03/09 22:31:23;;;;;;;;;;;;;;;;;;4918625;29;19915;-88
2023/03/09 22:33:49;;;;;;;;;;;;;;;;;;4919025;29;19967;-89
2023/03/09 22:36:16;;;;;;;;;;;;;;;;;;4901424;29;19962;-89
2023/03/09 22:38:42;;;;;;;;;;;;;;;;;;4918046;29;19915;-89
2023/03/09 22:41:08;;;;;;;;;;;;;;;;;;4917883;29;19919;-89
2023/03/09 22:43:35;;;;;;;;;;;;;;;;;;4900942;29;19918;-89
2023/03/09 22:46:00;;;;;;;;;;;;;;;;;;4901063;29;19923;-88
2023/03/09 22:48:27;;;;;;;;;;;;;;;;;;4917506;29;19915;-89
2023/03/09 22:50:52;;;;;;;;;;;;;;;;;;4900915;29;19915;-89
2023/03/09 22:53:18;;;;;;;;;;;;;;;;;;4900999;29;19922;-89
2023/03/09 22:55:44;;;;;;;;;;;;;;;;;;4900610;29;19915;-89
2023/03/09 22:58:09;;;;;;;;;;;;;;;;;;4900999;29;19954;-89
2023/03/09 23:00:34;;;;;;;;;;;;;;;;;;4900679;29;20321;-88
2023/03/09 23:02:59;;;;;;;;;;;;;;;;;;4901091;29;20385;-88
2023/03/09 23:05:25;;;;;;;;;;;;;;;;;;4917746;29;19915;-88
2023/03/09 23:07:50;;;;;;;;;;;;;;;;;;4917652;29;19915;-88
2023/03/09 23:10:16;;;;;;;;;;;;;;;;;;4900587;29;19915;-89
2023/03/09 23:12:42;;;;;;;;;;;;;;;;;;4900458;29;20507;-88
2023/03/09 23:15:07;;;;;;;;;;;;;;;;;;4900591;29;19915;-88
2023/03/09 23:17:33;;;;;;;;;;;;;;;;;;4900754;29;19966;-89
2023/03/09 23:19:58;;;;;;;;;;;;;;;;;;4900741;29;19921;-89
